Kingsland, GA

12:30 PM EDT on September 23, 2014 (GMT -0400)
TractorMan, Peeples Rd. | Change Station
CLOSE
Current Station
Personal Weather Station
Location: Kingsland, GA
Elevation: 34 ft
Nearby Weather Stations

Elev 34 ft 30.77 °N, 81.73 °W | Updated 15 seconds ago

Overcast
Overcast
73.1 °F
Feels Like 73.1 °F
N
1.0
Wind Variable Wind from ENE
Gusts 1.0 mph

Today
High -- | Low -- °F
--% Chance of Precip.
Yesterday
High -- | Low -- °F
Precip. -- in
7:15 AM 7:22 PM
Waning Crescent, 0% visible
Pressure 30.08 in
Visibility 10.0 miles
Clouds Mostly Cloudy 1700 ft
Overcast 6000 ft
Dew Point 71 °F
Humidity 94%
Rainfall 0.33 in
Snow Depth Not available.
UV 3 out of 12
Pollen 5.80 out of 12
Air Quality Not available.
Flu Activity Not available.
METAR KJAX 231556Z 03013G18KT 10SM BKN017 OVC060 25/22 A3007 RMK AO2 SLP184 T02500217

More Conditions Fewer Conditions

Pressure 30.08 in
Visibility 10.0 miles
Clouds Mostly Cloudy 1700 ft
Overcast 6000 ft
Dew Point 71 °F
Humidity 94%
Rainfall 0.33 in
Snow Depth Not available.
UV 3 out of 12
Pollen 5.80 out of 12
Air Quality Not available.
Flu Activity Not available.
METAR KJAX 231556Z 03013G18KT 10SM BKN017 OVC060 25/22 A3007 RMK AO2 SLP184 T02500217

More Conditions Fewer Conditions

10-Day Weather Forecast

Almanac

Astronomy

Sep. 23, 2014 Rise Set
Actual Time 7:15 AM EDT 7:22 PM EDT
Civil Twilight 6:51 AM EDT 7:46 PM EDT
Nautical Twilight 6:23 AM EDT 8:14 PM EDT
Astronomical Twilight 5:55 AM EDT 8:42 PM EDT
Moon 6:39 AM EDT 7:01 PM EDT
Length of Visible Light 12h 54m
Length of Day
12h 06m
Tomorrow will be 1m 51s shorter.
Waning Crescent, 0% of the Moon is Illuminated
Today
Waning Crescent
Sep 24
New
Oct 1
First Quarter
Oct 8
Full
Oct 15
Last Quarter

Today's Extremes

State Highs State Lows

Community

WunderPhotos

Upload Photos

1,755,744 photos uploaded!

WunderBlogs® & News

By Dr. Jeff Masters
Director of Meteorology, Weather Underground
By Kari Strenfel
Meteorologist, Weather Underground
By Christopher C. Burt
Weather Historian, Weather Underground
September 23, 2014
September 23, 2014
September 23, 2014

Nearby

Snow Depth

Station Depth Elevation
No new snow has been reported.

Earthquake Activity

City Distance Mag. Time & Date
No recent earthquake activity has been reported nearby.
Minimum magnitude displayed is 2.5.

Coastal Water Temperatures

Place Temperature
Fernandina Beach, FL 81.0 °F
Mayport (Bar Pilots Dock), FL 82.0 °F

Nearby Weather Stations